DW3611 Weather Reports


Display with metric or nautical units.
time (UTC)temp
F
wind
direction
speed
MPH
gust
MPH
rain 1hr
in
rain 24hr
in
rain mn
in
humidity
%
barometer
mb
20210922160051 74 333 3.0 7.0 0.00 0.01 0.01 55 1024.5
20210922154550 74 325 1.0 8.0 0.00 0.01 0.01 57 1024.3
20210922153024 73 67 3.0 13.0 0.00 0.01 0.01 55 1024.4
20210922151543 72 341 2.0 5.0 0.00 0.01 0.01 56 1024.5
20210922150022 71 360 1.0 4.0 0.00 0.01 0.01 60 1024.3
20210922144545 70 0 1.0 7.0 0.00 0.01 0.01 66 1024.1
20210922143034 68 56 1.0 3.0 0.00 0.01 0.01 73 1024.0
20210922141529 67 194 1.0 3.0 0.00 0.01 0.01 75 1023.9
20210922140055 65 171 0.0 4.0 0.00 0.01 0.01 77 1023.7
20210922134523 64 32 1.0 3.0 0.00 0.01 0.01 79 1023.6
20210922133055 63 5 1.0 3.0 0.00 0.01 0.01 80 1023.7
20210922131553 62 80 0.0 4.0 0.00 0.01 0.01 80 1023.6
20210922130059 62 0 0.0 4.0 0.00 0.01 0.01 80 1023.6
20210922124529 61 0 0.0 3.0 0.00 0.01 0.01 82 1023.5
20210922123024 61 0 0.0 0.0 0.00 0.01 0.01 82 1023.7
20210922121555 61 0 0.0 0.0 0.00 0.01 0.01 81 1023.5
20210922120026 62 220 0.0 1.0 0.00 0.01 0.01 80 1023.2
20210922114549 63 0 0.0 3.0 0.00 0.01 0.01 78 1023.2
20210922113102 64 0 0.0 2.0 0.00 0.01 0.01 77 1023.3
20210922111535 64 0 1.0 5.0 0.00 0.01 0.01 77 1023.3
20210922110056 65 37 1.0 2.0 0.01 0.01 0.01 77 1023.1
20210922104536 65 13 1.0 3.0 0.01 0.02 0.01 76 1023.0
20210922103037 65 10 0.0 2.0 0.01 0.02 0.01 77 1022.9
20210922101535 65 0 0.0 3.0 0.01 0.02 0.01 78 1022.8
20210922100108 66 40 0.0 2.0 0.00 0.01 0.00 78 1022.7
20210922094552 66 92 0.0 3.0 0.00 0.01 0.00 76 1022.7
20210922093024 66 0 0.0 3.0 0.00 0.01 0.00 76 1022.5
20210922091519 67 50 1.0 3.0 0.00 0.01 0.00 76 1022.5
20210922090028 68 32 0.0 3.0 0.00 0.01 0.00 76 1022.4
20210922084543 68 0 0.0 2.0 0.00 0.01 0.00 76 1022.4
20210922083049 69 43 1.0 3.0 0.00 0.01 0.00 76 1022.2
20210922081528 69 64 1.0 4.0 0.00 0.01 0.00 75 1022.0
20210922080058 70 288 0.0 3.0 0.00 0.01 0.00 76 1021.6
20210922074549 70 352 2.0 6.0 0.00 0.01 0.00 75 1021.3
20210922073054 70 51 1.0 8.0 0.00 0.01 0.00 75 1021.2
20210922071550 71 348 2.0 7.0 0.00 0.01 0.00 75 1021.2
20210922070033 71 57 2.0 6.0 0.00 0.01 0.00 75 1021.3
20210922064608 71 49 0.0 4.0 0.00 0.01 0.00 75 1021.3
20210922063109 72 0 1.0 6.0 0.00 0.01 0.00 75 1021.1
20210922061531 72 136 1.0 8.0 0.00 0.01 0.00 74 1021.1
20210922060039 73 136 1.0 6.0 0.00 0.01 0.00 73 1021.0
20210922054538 73 169 1.0 7.0 0.00 0.01 0.00 73 1020.9
20210922053105 74 115 1.0 5.0 0.00 0.01 0.00 74 1020.9
20210922051602 74 0 1.0 4.0 0.00 0.01 0.00 74 1020.7
20210922050106 75 67 1.0 7.0 0.00 0.01 0.00 74 1020.9
20210922044544 75 296 1.0 6.0 0.00 0.01 0.01 75 1020.9
20210922043035 75 48 0.0 6.0 0.00 0.01 0.01 74 1021.0
20210922041544 76 240 1.0 7.0 0.00 0.01 0.01 74 1020.6
20210922040105 77 41 1.0 9.0 0.00 0.01 0.01 73 1020.6
20210922034625 77 50 1.0 5.0 0.00 0.01 0.01 74 1020.3
20210922033048 78 28 1.0 6.0 0.00 0.01 0.01 74 1020.0
20210922031529 78 5 1.0 6.0 0.00 0.01 0.01 76 1019.8
20210922030046 79 262 0.0 9.0 0.00 0.01 0.01 76 1019.6
20210922024555 79 69 1.0 4.0 0.00 0.01 0.01 76 1019.4
20210922023044 79 149 1.0 11.0 0.00 0.01 0.01 77 1019.1
20210922021529 80 0 1.0 5.0 0.00 0.01 0.01 78 1018.8
20210922020035 79 0 2.0 5.0 0.00 0.01 0.01 80 1018.5
20210922014528 79 0 0.0 0.0 0.00 0.01 0.01 83 1017.8
20210922013039 79 0 0.0 1.0 0.00 0.01 0.01 82 1017.4
20210922011548 80 0 0.0 0.0 0.00 0.01 0.01 81 1017.2
20210922010022 80 0 0.0 1.0 0.00 0.01 0.01 81 1017.0
20210922004614 80 0 0.0 1.0 0.00 0.01 0.01 80 1016.8
20210922003040 81 0 0.0 0.0 0.00 0.01 0.01 78 1016.4
20210922001550 82 69 0.0 1.0 0.00 0.01 0.01 78 1016.2
20210922000034 83 0 0.0 1.0 0.00 0.01 0.01 75 1016.2
20210921234530 85 0 0.0 2.0 0.00 0.01 0.01 74 1015.8
20210921233036 86 38 1.0 3.0 0.00 0.01 0.01 71 1015.8
20210921231547 86 0 0.0 3.0 0.00 0.01 0.01 73 1015.7
20210921230045 86 0 0.0 2.0 0.00 0.01 0.01 75 1015.5
20210921224523 86 0 0.0 0.0 0.00 0.01 0.01 75 1015.5
20210921223026 87 0 0.0 1.0 0.00 0.01 0.01 75 1015.5
20210921221626 90 0 0.0 2.0 0.00 0.01 0.01 63 1015.4
20210921220026 90 0 0.0 2.0 0.00 0.01 0.01 61 1015.3
20210921214535 91 0 0.0 3.0 0.00 0.01 0.01 62 1015.1
20210921213029 91 230 2.0 3.0 0.00 0.01 0.01 62 1015.3
20210921211531 90 101 0.0 3.0 0.00 0.01 0.01 69 1015.5
20210921210033 89 0 0.0 2.0 0.00 0.01 0.01 67 1015.7
20210921204550 92 352 1.0 4.0 0.00 0.01 0.01 63 1015.8
20210921203031 92 208 1.0 5.0 0.00 0.01 0.01 64 1015.9
20210921201559 90 26 0.0 2.0 0.00 0.01 0.01 64 1016.0
20210921200031 92 88 1.0 3.0 0.00 0.01 0.01 65 1016.3
20210921194607 91 47 0.0 3.0 0.00 0.01 0.01 67 1016.5
20210921193039 90 0 0.0 5.0 0.00 0.01 0.01 67 1016.9
20210921191607 92 217 2.0 7.0 0.00 0.01 0.01 61 1017.0
20210921190030 90 196 1.0 4.0 0.00 0.01 0.01 64 1017.2
20210921184558 90 183 1.0 4.0 0.00 0.01 0.01 65 1017.5
20210921183031 90 290 1.0 4.0 0.00 0.01 0.01 69 1017.5
20210921181549 88 0 1.0 4.0 0.00 0.01 0.01 72 1017.7
20210921180114 87 109 1.0 6.0 0.00 0.01 0.01 70 1018.0
20210921174556 89 208 3.0 10.0 0.00 0.01 0.01 68 1018.1
20210921173040 87 181 2.0 6.0 0.00 0.01 0.01 72 1018.2
20210921171528 88 219 3.0 10.0 0.00 0.01 0.01 69 1018.2
20210921170047 87 134 3.0 10.0 0.00 0.01 0.01 69 1018.3
20210921164554 85 196 1.0 5.0 0.00 0.01 0.01 75 1018.3
20210921163101 85 197 1.0 7.0 0.00 0.01 0.01 74 1018.4
20210921161541 85 229 3.0 9.0 0.00 0.01 0.01 78 1018.4